ADDS TAF Board (Experimental) INFO Settings
IDs: Format: Expanded Condensed

KEWR - Newark Intl, NJ, US

Issued at 1534 UTC 30 Aug 2016
Updated at 1703 UTC 30 Aug 2016
Time1651Z 30/18Z 30/19Z 30/20Z 30/21Z 30/22Z 30/23Z 31/00Z 31/01Z 31/02Z 31/03Z 31/04Z 31/05Z 31/06Z
Type OBS PRVL PRVL PRVL PRVL PRVL PRVL PRVL PRVL PRVL PRVL PRVL PRVL PRVL
VIS 10 >6 >6 >6 >6 >6 >6 >6 >6 >6 >6 >6 >6 >6
CIG 250 -- -- -- -- -- -- -- -- -- -- -- -- --
Cover BKN SCT SCT SCT SCT SCT SCT SCT SCT SCT SCT SCT SCT SCT
FltCat VFR VFR VFR VFR VFR VFR VFR VFR VFR VFR VFR VFR VFR VFR
WX -- -- -- -- -- -- -- -- -- -- -- -- -- --
WDir 180 150 150 150 150 150 150 180 180 180 180 180 180 220
WSpd 5 7 7 7 7 7 7 7 7 7 7 7 7 5
WGst -- -- -- -- -- -- -- -- -- -- -- -- -- --
R04/22
XWnd -2 -6 -6 -6 -6 -6 -6 -3 -3 -3 -3 -3 -3 1
HWnd -4 -4 -4 -4 -4 -4 -4 -6 -6 -6 -6 -6 -6 -5
R11/29
XWnd -5 -6 -6 -6 -6 -6 -6 -7 -7 -7 -7 -7 -7 -4
HWnd 0 4 4 4 4 4 4 1 1 1 1 1 1 -3

Raw TAF
KEWR 301534Z 3016/3118 15007KT P6SM FEW050 SCT250
  FM310000 18007KT P6SM SCT250
  FM310600 22005KT P6SM SCT250


Raw METAR
KEWR 301651Z 18005KT 10SM SCT040 BKN250 28/16 A3013 RMK AO2 SLP202 T02780161
KEWR 301551Z COR 13003KT 10SM FEW040 BKN250 27/16 A3014 RMK AO2 SLP207 T02720161
KEWR 301451Z 15007KT 10SM FEW045 FEW070 BKN250 26/16 A3016 RMK AO2 SLP212 T02610161 58000

METAR Board
Radar Display
Forecast Discussion

TAF Board Legend

Potential Impact
Threat None Slight Moderate High
Visibility (sm) ≥5.1 5.1>X≥3 3>X≥1 <1
Ceiling (100 ft) ≥30.1 30.1>X≥10 10>X≥5 <5
Wind Speed (kt) <10 10≤X<20 20≤X<30 ≥30
Wind Gust (kt) <15 15≤X<25 25≤X<35 ≥35
Weather No Wx Reported VCTS,-TS,-FZRA,SN TS,FZRA +TS,+FZRA,+SN